Terminal Aerodrome Forecast
Issued by NWS Jackson, KY

Home | Current Version | Previous Version | Text Only | Print | Product List | Glossary On
Versions: 1 2 3 4 5 6 7 8 9 10 11 12 13 14 15 16 17 18 19 20 21 22
937
FTUS43 KJKL 152107 AAA
TAFLOZ
TAF AMD
KLOZ 152107Z 1521/1618 VRB03KT P6SM -DZ OVC005
     FM160100 VRB03KT 3SM BR VCSH OVC002
     FM161600 VRB03KT P6SM BKN010
     FM161700 18004KT P6SM BKN025=

USA.gov is the U.S. government's official web portal to all federal, state and local government web resources and services.